Time;durP1;ratioP1;P1;durP2;ratioP2;P2;SDS_P1;SDS_P2;PMS_P1;PMS_P2;Temp;Humidity;BMP_temperature;BMP_pressure;BME280_temperature;BME280_humidity;BME280_pressure;Samples;Min_cycle;Max_cycle;Signal;HPM_P1;HPM_P2
2023/06/14 00:01:06;;;;;;;8.73;7.83;;;;;;;18.65;100.00;94593.44;5054995;28;20449;-80
2023/06/14 00:03:32;;;;;;;11.50;8.40;;;;;;;18.64;100.00;94584.63;5054933;28;20445;-80
2023/06/14 00:05:59;;;;;;;9.47;8.47;;;;;;;18.62;100.00;94589.31;5055002;28;20484;-80
2023/06/14 00:08:26;;;;;;;8.70;7.80;;;;;;;18.61;100.00;94594.78;5019432;28;20449;-80
2023/06/14 00:10:55;;;;;;;9.40;7.77;;;;;;;18.63;100.00;94587.47;5054712;28;20494;-80
2023/06/14 00:13:21;;;;;;;9.73;8.07;;;;;;;18.65;100.00;94588.13;5036130;28;20940;-80
2023/06/14 00:15:48;;;;;;;10.10;8.37;;;;;;;18.69;100.00;94581.41;5019403;28;20506;-80
2023/06/14 00:18:16;;;;;;;8.80;7.90;;;;;;;18.70;100.00;94575.91;5054849;28;20468;-80
2023/06/14 00:20:43;;;;;;;11.03;8.90;;;;;;;18.71;100.00;94579.38;5020106;28;20860;-80
2023/06/14 00:23:10;;;;;;;8.77;7.40;;;;;;;18.70;100.00;94583.88;5054070;28;20929;-80
2023/06/14 00:25:37;;;;;;;9.70;8.30;;;;;;;18.71;100.00;94574.91;5054218;28;20962;-80
2023/06/14 00:28:05;;;;;;;10.20;7.50;;;;;;;18.73;100.00;94574.72;5053215;28;20447;-80
2023/06/14 00:30:31;;;;;;;9.40;7.73;;;;;;;18.75;100.00;94573.50;5054416;28;20492;-80
2023/06/14 00:32:58;;;;;;;8.03;7.23;;;;;;;18.74;100.00;94568.38;5054556;28;20449;-80
2023/06/14 00:35:25;;;;;;;8.40;7.70;;;;;;;18.74;100.00;94568.38;5054354;28;20453;-80
2023/06/14 00:37:54;;;;;;;11.33;8.40;;;;;;;18.71;100.00;94568.75;5054489;28;20456;-80
2023/06/14 00:40:21;;;;;;;9.43;7.20;;;;;;;18.71;100.00;94566.09;5019894;28;20450;-80
2023/06/14 00:42:48;;;;;;;10.90;8.07;;;;;;;18.70;100.00;94567.94;5054369;28;20451;-80
2023/06/14 00:45:16;;;;;;;12.83;8.40;;;;;;;18.69;100.00;94565.47;5054130;28;20535;-80
2023/06/14 00:47:44;;;;;;;9.73;8.00;;;;;;;18.67;100.00;94564.84;5054286;28;20486;-80
2023/06/14 00:50:11;;;;;;;8.50;7.67;;;;;;;18.65;100.00;94565.03;5053856;28;20538;-80
2023/06/14 00:52:38;;;;;;;10.00;7.70;;;;;;;18.67;100.00;94564.84;5053915;28;20453;-80
2023/06/14 00:55:05;;;;;;;12.07;7.33;;;;;;;18.66;100.00;94564.00;5054036;28;20850;-80
2023/06/14 00:57:32;;;;;;;8.43;7.63;;;;;;;18.68;100.00;94561.16;5019206;28;20441;-80
2023/06/14 00:59:59;;;;;;;8.83;7.83;;;;;;;18.69;100.00;94557.50;5018509;28;20939;-82
2023/06/14 01:02:27;;;;;;;9.70;8.60;;;;;;;18.70;100.00;94553.81;5053684;28;20435;-80
2023/06/14 01:04:55;;;;;;;9.40;8.40;;;;;;;18.71;100.00;94558.94;5053834;28;20434;-80
2023/06/14 05:09:02;;;;;;;12.47;10.73;;;;;;;20.41;100.00;94639.69;5010307;28;20227;-80
2023/06/14 05:11:30;;;;;;;12.27;10.00;;;;;;;20.44;100.00;94635.78;5009518;28;20232;-80
2023/06/14 05:13:58;;;;;;;13.60;9.93;;;;;;;20.37;100.00;94638.38;4960761;28;20479;-80
2023/06/14 05:16:25;;;;;;;13.60;9.77;;;;;;;20.33;100.00;94637.97;5009871;28;20532;-80
2023/06/14 05:18:52;;;;;;;12.00;10.43;;;;;;;20.26;100.00;94641.63;5010393;28;20440;-81
2023/06/14 05:21:19;;;;;;;13.70;10.63;;;;;;;20.21;100.00;94641.34;5009842;28;20498;-80
2023/06/14 05:23:45;;;;;;;15.40;10.93;;;;;;;20.25;100.00;94653.28;5010292;28;20449;-80
2023/06/14 05:26:12;;;;;;;12.60;10.57;;;;;;;20.28;100.00;94642.25;5010450;28;20448;-80
2023/06/14 05:28:40;;;;;;;12.83;11.00;;;;;;;20.25;100.00;94654.13;5053379;28;20446;-84
2023/06/14 05:31:07;;;;;;;19.10;11.80;;;;;;;20.20;100.00;94650.38;5053426;28;20466;-81
2023/06/14 05:33:34;;;;;;;13.27;11.50;;;;;;;20.16;100.00;94655.25;5053614;28;20453;-80
2023/06/14 05:36:01;;;;;;;19.73;11.77;;;;;;;20.15;100.00;94653.63;5053172;28;20524;-80
2023/06/14 05:38:27;;;;;;;21.70;11.43;;;;;;;20.07;100.00;94653.78;5051664;28;20480;-80
2023/06/14 05:40:54;;;;;;;20.23;13.63;;;;;;;19.95;100.00;94660.63;5052294;28;20528;-79
2023/06/14 05:43:21;;;;;;;15.33;13.23;;;;;;;19.96;100.00;94655.13;5051953;28;20450;-80
2023/06/14 05:45:49;;;;;;;16.17;13.33;;;;;;;19.88;100.00;94649.94;5051939;28;20511;-80
2023/06/14 05:48:16;;;;;;;16.60;14.57;;;;;;;19.78;100.00;94658.25;5052061;28;20459;-80
2023/06/14 05:50:43;;;;;;;20.20;13.70;;;;;;;19.85;100.00;94660.97;5051606;28;20554;-80
2023/06/14 05:53:09;;;;;;;18.40;14.47;;;;;;;19.64;100.00;94661.81;5049687;28;20458;-80
2023/06/14 05:55:36;;;;;;;21.10;16.43;;;;;;;19.58;100.00;94657.25;5051796;28;21035;-80
2023/06/14 05:58:03;;;;;;;21.20;15.97;;;;;;;19.38;100.00;94656.22;5052042;28;20932;-80
2023/06/14 06:00:30;;;;;;;21.40;17.23;;;;;;;19.32;100.00;94670.25;5051744;28;20440;-80
2023/06/14 06:02:59;;;;;;;21.70;17.30;;;;;;;19.22;100.00;94657.28;5052146;28;20461;-80
2023/06/14 06:05:25;;;;;;;23.13;18.80;;;;;;;19.35;100.00;94667.22;5051587;28;20452;-80
2023/06/14 06:07:52;;;;;;;22.03;17.07;;;;;;;19.33;100.00;94669.25;5049605;28;20441;-80
2023/06/14 06:10:19;;;;;;;21.57;17.27;;;;;;;19.37;100.00;94678.50;5051645;28;20493;-80
2023/06/14 06:12:47;;;;;;;25.70;18.87;;;;;;;19.43;100.00;94675.94;5051453;28;20474;-80
2023/06/14 06:15:14;;;;;;;20.50;16.30;;;;;;;19.45;100.00;94673.09;5051473;28;20528;-80
2023/06/14 06:17:41;;;;;;;21.60;17.97;;;;;;;19.46;100.00;94672.88;5051338;28;20450;-80
2023/06/14 06:20:11;;;;;;;23.70;16.70;;;;;;;19.36;100.00;94679.50;5051176;28;20812;-80
2023/06/14 06:22:38;;;;;;;18.27;15.90;;;;;;;19.42;100.00;94673.47;5051732;28;20457;-80
2023/06/14 06:25:06;;;;;;;22.50;15.27;;;;;;;19.27;100.00;94680.66;5052124;28;20449;-80
2023/06/14 06:27:33;;;;;;;24.23;18.13;;;;;;;19.32;100.00;94679.06;5055353;28;20452;-80
2023/06/14 06:29:59;;;;;;;18.03;15.50;;;;;;;19.39;100.00;94676.50;5055261;28;20503;-80
2023/06/14 06:32:26;;;;;;;20.57;16.80;;;;;;;19.48;100.00;94678.03;5055096;28;20464;-80
2023/06/14 06:34:53;;;;;;;18.17;15.83;;;;;;;19.57;100.00;94687.56;5055029;28;20503;-80
2023/06/14 06:37:21;;;;;;;23.63;16.60;;;;;;;19.65;100.00;94686.59;5055376;28;20461;-80
2023/06/14 06:39:48;;;;;;;20.40;16.57;;;;;;;19.80;100.00;94688.19;5055178;28;20440;-80
2023/06/14 06:42:15;;;;;;;21.60;16.00;;;;;;;19.93;100.00;94689.28;5055099;28;20536;-80
2023/06/14 06:44:42;;;;;;;28.23;18.37;;;;;;;19.73;100.00;94695.28;5054824;28;20486;-80
2023/06/14 06:47:09;;;;;;;21.57;16.73;;;;;;;19.83;100.00;94691.47;5054792;28;20857;-80
2023/06/14 06:49:36;;;;;;;24.10;16.90;;;;;;;20.01;100.00;94699.84;5054612;28;20446;-80
2023/06/14 06:52:04;;;;;;;21.53;16.47;;;;;;;19.88;100.00;94686.41;5054458;28;20870;-80
2023/06/14 06:54:33;;;;;;;20.50;16.83;;;;;;;19.94;100.00;94694.44;5054194;28;20451;-81
2023/06/14 06:57:01;;;;;;;21.73;17.27;;;;;;;19.97;100.00;94693.25;5054281;28;20507;-80
2023/06/14 06:59:28;;;;;;;20.80;16.30;;;;;;;20.11;100.00;94701.13;5054797;28;20446;-80
2023/06/14 07:01:55;;;;;;;23.10;16.90;;;;;;;20.22;100.00;94704.28;5055211;28;20451;-80
2023/06/14 07:04:21;;;;;;;19.77;15.50;;;;;;;20.26;98.89;94701.06;5055217;28;20447;-80
2023/06/14 07:06:48;;;;;;;19.20;15.23;;;;;;;20.33;99.44;94698.44;5054799;28;20448;-81
2023/06/14 07:09:15;;;;;;;20.37;15.10;;;;;;;20.50;99.20;94699.78;5054781;28;20501;-80
2023/06/14 07:11:45;;;;;;;22.27;16.83;;;;;;;20.62;97.40;94700.09;5054607;28;20522;-80
2023/06/14 07:14:12;;;;;;;19.30;15.47;;;;;;;20.76;96.73;94704.47;5053794;28;20506;-80
2023/06/14 07:16:41;;;;;;;18.93;14.27;;;;;;;20.62;97.16;94700.09;5054252;28;20442;-80
2023/06/14 07:19:08;;;;;;;21.90;15.37;;;;;;;20.66;96.81;94699.50;5035533;28;20440;-80
2023/06/14 07:21:37;;;;;;;18.17;14.03;;;;;;;20.53;94.68;94699.44;5054906;28;20447;-80
2023/06/14 07:24:04;;;;;;;21.73;14.60;;;;;;;20.95;94.60;94698.41;5054350;28;20463;-80
2023/06/14 07:26:31;;;;;;;14.97;12.67;;;;;;;21.53;88.53;94692.69;5053607;28;20452;-81
2023/06/14 07:28:59;;;;;;;13.60;11.40;;;;;;;22.09;85.98;94695.88;5035244;28;20448;-80
2023/06/14 07:31:26;;;;;;;14.33;12.83;;;;;;;22.65;86.83;94695.41;5053838;28;20838;-80
2023/06/14 07:33:53;;;;;;;17.50;14.30;;;;;;;23.06;84.88;94697.78;5053441;28;20460;-80
2023/06/14 07:36:19;;;;;;;15.97;14.27;;;;;;;23.41;81.66;94690.22;5053165;28;20489;-80
2023/06/14 07:38:47;;;;;;;13.57;11.50;;;;;;;23.79;78.06;94703.63;5053710;28;21033;-80
2023/06/14 07:41:13;;;;;;;15.33;12.10;;;;;;;24.08;78.68;94696.84;5053776;28;20437;-80
2023/06/14 07:43:40;;;;;;;13.67;12.33;;;;;;;24.53;76.62;94702.03;5053527;28;20449;-81
2023/06/14 07:46:09;;;;;;;14.50;13.10;;;;;;;24.66;75.12;94704.63;5053366;28;20952;-81
2023/06/14 07:48:35;;;;;;;19.03;14.63;;;;;;;24.09;76.79;94703.84;5053629;28;20517;-80
2023/06/14 07:51:02;;;;;;;15.23;13.63;;;;;;;23.61;76.75;94703.53;5053629;28;20497;-80
2023/06/14 07:53:30;;;;;;;17.53;13.63;;;;;;;23.36;78.81;94703.41;5053819;28;20923;-80
2023/06/14 07:55:57;;;;;;;17.47;13.80;;;;;;;22.92;79.12;94706.09;5053780;28;20944;-80
2023/06/14 07:58:24;;;;;;;15.83;14.07;;;;;;;23.27;79.83;94712.75;5053864;28;20494;-80
2023/06/14 08:00:51;;;;;;;18.50;14.80;;;;;;;23.77;80.56;94707.56;5053670;28;20462;-80
2023/06/14 08:03:19;;;;;;;17.13;14.97;;;;;;;24.25;79.59;94702.47;5053351;28;20477;-80
2023/06/14 08:05:46;;;;;;;16.27;14.57;;;;;;;24.54;76.13;94713.59;5053405;28;20491;-80
2023/06/14 08:08:13;;;;;;;18.67;12.60;;;;;;;24.87;75.35;94718.66;5053892;28;20445;-80
2023/06/14 08:10:40;;;;;;;16.60;12.60;;;;;;;25.14;72.97;94711.97;5051000;28;20488;-81
2023/06/14 08:13:06;;;;;;;13.57;12.17;;;;;;;25.55;71.16;94740.00;5052943;28;20527;-80
2023/06/14 08:15:33;;;;;;;13.67;12.27;;;;;;;25.53;70.32;94734.88;5053351;28;20450;-80
2023/06/14 08:18:01;;;;;;;13.63;12.33;;;;;;;25.65;70.71;94742.97;5053144;28;20445;-80
2023/06/14 08:20:31;;;;;;;15.07;13.60;;;;;;;25.70;69.60;94745.00;5053206;28;20473;-80
2023/06/14 08:22:58;;;;;;;13.53;12.00;;;;;;;24.88;70.78;94736.41;5050944;28;20449;-80
2023/06/14 08:25:25;;;;;;;16.03;13.40;;;;;;;25.01;72.60;94736.28;5052840;28;20477;-80
2023/06/14 08:27:52;;;;;;;13.43;12.13;;;;;;;25.22;70.54;94738.56;5053089;28;20525;-80
2023/06/14 08:30:19;;;;;;;13.83;12.40;;;;;;;25.44;69.93;94743.44;5053135;28;20504;-80
2023/06/14 08:32:46;;;;;;;15.00;13.50;;;;;;;25.46;69.67;94746.75;5053087;28;20442;-80
2023/06/14 08:35:13;;;;;;;14.03;12.73;;;;;;;25.46;69.09;94739.50;5053149;28;20446;-80
2023/06/14 08:37:42;;;;;;;12.80;11.53;;;;;;;25.57;68.52;94741.44;5053116;28;20454;-80
2023/06/14 08:40:20;;;;;;;13.03;11.73;;;;;;;25.70;70.10;94743.13;5034046;28;20821;-80
2023/06/14 08:42:51;;;;;;;14.27;12.77;;;;;;;25.98;67.36;94747.09;5052804;28;20537;-80
2023/06/14 08:45:17;;;;;;;12.63;10.93;;;;;;;26.19;66.72;94738.53;5052667;28;20848;-80
2023/06/14 08:47:45;;;;;;;20.93;13.37;;;;;;;26.47;67.41;94737.91;5051873;28;20446;-80
2023/06/14 08:50:15;;;;;;;12.97;11.60;;;;;;;26.54;65.05;94734.03;5052381;28;20492;-80
2023/06/14 08:52:49;;;;;;;12.97;11.13;;;;;;;26.46;68.44;94725.50;5052619;28;20446;-80
2023/06/14 08:55:17;;;;;;;14.10;12.50;;;;;;;26.28;65.96;94718.31;5052602;28;20925;-81
2023/06/14 08:57:45;;;;;;;13.37;11.97;;;;;;;26.34;66.39;94727.38;5052555;28;20448;-80
2023/06/14 09:00:14;;;;;;;13.90;12.50;;;;;;;26.44;66.40;94723.06;5052615;28;20449;-80
2023/06/14 09:02:43;;;;;;;17.20;12.70;;;;;;;26.46;65.26;94720.94;5052200;28;20454;-80
2023/06/14 09:05:10;;;;;;;14.10;12.70;;;;;;;26.25;65.08;94724.97;5052465;28;20490;-81
2023/06/14 09:07:38;;;;;;;14.13;12.63;;;;;;;25.59;67.40;94725.88;5052208;28;20449;-81
2023/06/14 09:10:11;;;;;;;13.50;11.10;;;;;;;25.43;69.05;94720.31;5052125;28;20956;-80
2023/06/14 09:12:39;;;;;;;17.40;11.57;;;;;;;25.29;69.85;94715.13;5051944;28;20501;-80
2023/06/14 09:15:08;;;;;;;14.50;12.90;;;;;;;25.07;69.64;94708.53;5052055;28;20446;-80
2023/06/14 09:17:35;;;;;;;13.93;12.57;;;;;;;24.98;71.79;94713.41;5052357;28;20445;-80
2023/06/14 09:20:05;;;;;;;13.37;12.07;;;;;;;24.74;70.77;94714.25;5051906;28;20532;-80
2023/06/14 09:22:32;;;;;;;14.27;11.70;;;;;;;24.68;72.43;94705.22;5033910;28;20460;-81
2023/06/14 09:24:59;;;;;;;12.80;11.50;;;;;;;24.57;71.87;94710.47;5052070;28;20836;-80
2023/06/14 09:27:28;;;;;;;12.00;10.90;;;;;;;24.31;71.93;94703.50;5051854;28;20944;-80
2023/06/14 09:29:55;;;;;;;15.10;12.30;;;;;;;24.40;75.29;94707.53;5052433;28;20507;-81
2023/06/14 09:32:22;;;;;;;12.20;10.80;;;;;;;24.17;72.06;94700.06;5051877;28;20488;-80
2023/06/14 09:34:50;;;;;;;13.70;10.53;;;;;;;24.22;74.11;94697.53;5051917;28;20445;-81
2023/06/14 09:37:28;;;;;;;14.50;13.00;;;;;;;24.16;71.98;94702.97;5051952;28;20984;-80
2023/06/14 09:39:55;;;;;;;22.87;13.53;;;;;;;23.99;73.47;94695.44;5049748;28;20999;-80
2023/06/14 09:42:23;;;;;;;14.10;11.73;;;;;;;23.46;74.81;94693.09;5051962;28;20547;-80
2023/06/14 09:44:53;;;;;;;12.57;11.23;;;;;;;23.55;74.86;94688.28;5051762;28;20460;-80
2023/06/14 09:47:21;;;;;;;14.73;10.57;;;;;;;23.75;76.07;94686.34;5051540;28;20860;-80
2023/06/14 09:49:48;;;;;;;16.13;10.57;;;;;;;23.89;74.23;94687.06;5051851;28;20540;-80
2023/06/14 09:52:16;;;;;;;11.30;10.10;;;;;;;23.51;76.21;94676.38;5051628;28;20489;-80
2023/06/14 09:54:46;;;;;;;11.93;10.70;;;;;;;23.37;77.77;94678.28;5051270;28;20514;-80
2023/06/14 09:57:14;;;;;;;12.37;10.83;;;;;;;23.43;75.30;94682.81;5051545;28;20489;-80
2023/06/14 09:59:43;;;;;;;13.17;11.70;;;;;;;23.68;77.10;94680.19;5053495;28;20440;-80
2023/06/14 10:02:19;;;;;;;16.33;11.77;;;;;;;23.83;75.78;94681.75;5055699;28;20521;-79
2023/06/14 10:04:51;;;;;;;13.13;10.67;;;;;;;24.03;76.45;94674.41;5055724;28;20436;-80
2023/06/14 10:07:21;;;;;;;13.73;11.40;;;;;;;24.10;77.34;94667.94;5055489;28;20836;-81
2023/06/14 10:09:49;;;;;;;12.67;11.27;;;;;;;24.25;73.96;94666.78;5055692;28;20449;-80
2023/06/14 10:12:21;;;;;;;11.23;10.23;;;;;;;24.24;73.64;94670.50;5055298;28;20976;-79
2023/06/14 10:14:51;;;;;;;13.80;11.30;;;;;;;24.27;73.27;94670.88;5055440;28;20916;-79
2023/06/14 10:17:27;;;;;;;11.80;10.70;;;;;;;24.32;72.65;94671.09;5055522;28;20502;-80
2023/06/14 10:20:03;;;;;;;11.50;9.87;;;;;;;24.67;72.37;94662.50;5055421;28;20452;-80
2023/06/14 10:22:39;;;;;;;13.30;11.23;;;;;;;24.93;71.32;94656.03;5036431;28;20441;-80
2023/06/14 10:25:11;;;;;;;13.13;10.87;;;;;;;24.92;69.58;94662.44;5055419;28;20449;-79
2023/06/14 10:27:38;;;;;;;9.40;8.50;;;;;;;24.88;71.50;94667.44;5055441;28;20449;-80
2023/06/14 10:30:08;;;;;;;11.00;10.00;;;;;;;24.50;73.15;94662.25;5036315;28;20594;-80
2023/06/14 10:33:06;;;;;;;12.90;11.60;;;;;;;24.27;73.32;94656.66;5036507;28;20901;-79
2023/06/14 10:35:33;;;;;;;11.93;10.83;;;;;;;24.32;71.78;94659.56;5055010;28;20528;-80
2023/06/14 10:38:08;;;;;;;11.53;9.87;;;;;;;24.55;73.89;94654.34;5036064;28;20450;-80
2023/06/14 10:40:35;;;;;;;9.87;8.93;;;;;;;24.62;71.06;94660.50;5055178;28;20441;-80
2023/06/14 10:43:21;;;;;;;10.90;9.73;;;;;;;24.68;70.86;94648.88;5055233;28;20858;-80
2023/06/14 10:46:16;;;;;;;11.00;9.60;;;;;;;25.03;73.00;94656.34;5039152;28;20450;-80
2023/06/14 10:48:44;;;;;;;10.93;9.83;;;;;;;25.04;68.80;94654.47;5055259;28;20537;-80
2023/06/14 10:51:20;;;;;;;9.67;8.77;;;;;;;24.55;69.26;94646.31;5054865;28;20445;-80
2023/06/14 10:53:48;;;;;;;10.10;9.20;;;;;;;24.52;71.42;94641.38;5055244;28;20849;-80
2023/06/14 10:56:28;;;;;;;9.50;8.60;;;;;;;24.54;67.66;94635.78;5054949;28;20523;-80
2023/06/14 10:58:56;;;;;;;9.63;8.27;;;;;;;24.74;68.23;94640.97;5054587;28;20807;-79
2023/06/14 11:01:33;;;;;;;9.23;8.40;;;;;;;24.99;67.90;94639.03;5054443;28;20456;-80
2023/06/14 11:04:08;;;;;;;9.17;8.27;;;;;;;25.30;69.25;94629.97;5054732;28;20503;-80
2023/06/14 11:06:47;;;;;;;13.73;9.60;;;;;;;25.47;70.02;94627.47;5052278;28;20536;-80
2023/06/14 11:09:54;;;;;;;10.30;8.50;;;;;;;25.29;69.13;94634.53;5054460;28;20533;-80
2023/06/14 11:12:22;;;;;;;10.43;8.70;;;;;;;25.39;69.32;94627.78;5030832;28;20687;-80
2023/06/14 11:14:50;;;;;;;8.90;8.10;;;;;;;25.43;69.15;94631.66;5031982;28;20443;-80
2023/06/14 11:17:16;;;;;;;11.23;8.37;;;;;;;25.52;68.13;94630.28;5032041;28;20512;-80
2023/06/14 11:19:45;;;;;;;9.90;8.37;;;;;;;25.59;66.21;94631.00;5031801;28;20454;-80
2023/06/14 11:22:11;;;;;;;10.30;7.53;;;;;;;25.78;66.34;94631.81;5031748;28;20446;-80
2023/06/14 11:24:38;;;;;;;8.57;7.80;;;;;;;25.90;66.73;94624.56;5031959;28;20446;-80
2023/06/14 11:27:06;;;;;;;9.07;8.20;;;;;;;26.03;66.35;94619.00;5031933;28;20905;-80
2023/06/14 11:29:33;;;;;;;9.60;7.40;;;;;;;26.02;66.10;94613.81;5031786;28;20454;-80
2023/06/14 11:31:59;;;;;;;8.43;7.77;;;;;;;25.54;67.42;94615.59;5031708;28;20486;-80
2023/06/14 11:34:26;;;;;;;8.73;7.83;;;;;;;24.87;69.10;94605.94;5031721;28;20496;-80
2023/06/14 11:36:55;;;;;;;8.93;8.00;;;;;;;24.80;69.12;94613.22;5031352;28;20450;-80
2023/06/14 11:39:26;;;;;;;10.47;8.03;;;;;;;24.78;68.91;94620.69;5031725;28;20526;-80
2023/06/14 11:41:52;;;;;;;10.47;8.67;;;;;;;24.61;70.70;94613.25;5031504;28;20522;-80
2023/06/14 11:44:19;;;;;;;9.63;8.73;;;;;;;24.56;67.70;94609.56;5031492;28;20501;-80
2023/06/14 11:46:46;;;;;;;9.23;8.30;;;;;;;24.59;69.24;94607.28;5031319;28;20439;-80
2023/06/14 11:49:13;;;;;;;9.03;7.80;;;;;;;24.55;68.84;94597.19;5042289;28;21019;-80
2023/06/14 11:51:39;;;;;;;9.50;8.60;;;;;;;24.64;70.23;94606.59;5053517;28;21058;-80
2023/06/14 11:54:08;;;;;;;10.00;8.57;;;;;;;24.58;69.11;94594.09;5053615;28;20438;-80
2023/06/14 11:56:36;;;;;;;13.13;8.03;;;;;;;24.42;70.08;94584.75;5053702;28;20540;-79
2023/06/14 11:59:05;;;;;;;8.07;7.30;;;;;;;24.44;70.30;94579.16;5053583;28;20507;-80
2023/06/14 12:01:32;;;;;;;9.90;7.60;;;;;;;24.42;69.32;94576.72;5053569;28;20795;-80
2023/06/14 12:04:00;;;;;;;9.87;8.43;;;;;;;24.37;70.87;94560.47;5053356;28;20534;-80
2023/06/14 12:06:32;;;;;;;9.33;8.47;;;;;;;24.43;71.37;94564.94;5053252;28;20441;-80
2023/06/14 12:09:01;;;;;;;10.73;8.10;;;;;;;24.56;72.35;94558.59;5035500;28;20505;-80
2023/06/14 12:11:34;;;;;;;8.63;7.57;;;;;;;24.43;71.29;94559.56;5053273;28;20615;-80
2023/06/14 12:14:01;;;;;;;9.90;8.73;;;;;;;24.33;72.08;94562.78;5053005;28;21057;-80
2023/06/14 12:16:32;;;;;;;7.70;6.97;;;;;;;23.99;72.70;94564.09;5053185;28;20524;-79
2023/06/14 12:19:02;;;;;;;8.13;7.33;;;;;;;23.93;71.57;94562.31;5050891;28;20441;-80
2023/06/14 12:21:29;;;;;;;8.23;7.47;;;;;;;23.80;72.76;94559.75;5034540;28;20503;-79
2023/06/14 12:23:56;;;;;;;7.70;6.90;;;;;;;23.82;70.01;94563.03;5052927;28;20952;-80
2023/06/14 12:26:25;;;;;;;8.23;7.13;;;;;;;23.87;70.81;94559.69;5053189;28;20452;-79
2023/06/14 12:28:54;;;;;;;9.20;7.50;;;;;;;23.94;68.05;94555.91;5052825;28;20453;-80
2023/06/14 12:31:20;;;;;;;8.77;7.73;;;;;;;24.23;67.77;94554.38;5053181;28;20723;-80
2023/06/14 12:33:48;;;;;;;10.67;8.03;;;;;;;24.47;67.95;94550.03;5052956;28;20489;-80
2023/06/14 12:36:15;;;;;;;6.97;6.37;;;;;;;24.50;66.79;94548.75;5052911;28;20515;-80
2023/06/14 12:38:42;;;;;;;7.47;6.80;;;;;;;24.32;67.37;94552.28;5054308;28;20539;-80
2023/06/14 12:41:09;;;;;;;7.97;7.17;;;;;;;24.40;65.52;94549.28;5056198;28;20441;-80
2023/06/14 12:43:36;;;;;;;8.40;7.47;;;;;;;24.41;66.40;94545.56;5052560;28;20455;-79
2023/06/14 12:46:04;;;;;;;9.17;7.50;;;;;;;24.45;70.81;94541.38;5053298;28;20507;-80
2023/06/14 12:48:31;;;;;;;9.87;8.90;;;;;;;24.33;74.43;94538.63;5052624;28;20521;-79
2023/06/14 12:50:58;;;;;;;8.93;8.20;;;;;;;24.31;79.00;94539.91;5052438;28;20808;-80
2023/06/14 12:53:25;;;;;;;9.40;8.33;;;;;;;24.25;81.09;94530.03;5052696;28;20485;-79
2023/06/14 12:55:51;;;;;;;9.63;8.40;;;;;;;24.12;82.54;94531.00;5052584;28;20901;-80
2023/06/14 12:58:19;;;;;;;11.07;10.07;;;;;;;24.09;86.03;94534.94;5052663;28;20449;-79
2023/06/14 13:00:46;;;;;;;10.67;9.67;;;;;;;23.91;86.80;94520.69;5052687;28;20450;-79
2023/06/14 13:03:14;;;;;;;12.00;8.10;;;;;;;23.81;89.00;94537.28;5033611;28;20492;-80
2023/06/14 13:05:42;;;;;;;12.33;10.27;;;;;;;23.58;94.62;94529.84;5052191;28;20852;-79
2023/06/14 13:08:09;;;;;;;10.90;9.80;;;;;;;23.48;96.56;94535.66;5052294;28;20963;-79
2023/06/14 13:10:36;;;;;;;14.87;11.40;;;;;;;23.41;97.88;94532.19;5052314;28;20441;-79
2023/06/14 13:13:03;;;;;;;13.67;11.47;;;;;;;23.33;99.33;94524.44;5052278;28;20549;-80
2023/06/14 13:15:30;;;;;;;12.83;10.37;;;;;;;23.17;99.39;94524.97;5049944;28;20491;-80
2023/06/14 13:17:57;;;;;;;13.40;9.90;;;;;;;23.06;98.51;94542.53;5052351;28;20453;-80
2023/06/14 13:20:25;;;;;;;12.90;9.93;;;;;;;22.92;97.83;94553.53;5052189;28;20518;-79
2023/06/14 13:22:52;;;;;;;10.60;9.13;;;;;;;22.75;98.43;94561.19;5052397;28;20444;-79
2023/06/14 13:25:19;;;;;;;10.90;9.93;;;;;;;22.69;99.13;94562.88;5049821;28;20441;-79
2023/06/14 13:27:46;;;;;;;12.90;11.10;;;;;;;22.61;99.31;94564.97;5051873;28;20446;-80
2023/06/14 13:30:13;;;;;;;14.43;11.23;;;;;;;22.49;99.68;94570.16;5051840;28;20449;-79
2023/06/14 13:32:40;;;;;;;12.90;10.40;;;;;;;22.17;100.00;94559.34;5052264;28;20577;-79
2023/06/14 13:35:07;;;;;;;12.73;9.83;;;;;;;22.07;100.00;94561.63;5051668;28;20440;-80
2023/06/14 13:37:35;;;;;;;11.00;9.60;;;;;;;21.91;100.00;94562.03;5052123;28;20911;-80
2023/06/14 13:40:02;;;;;;;11.73;10.30;;;;;;;21.80;100.00;94563.50;5051805;28;20500;-79
2023/06/14 13:42:31;;;;;;;12.77;10.53;;;;;;;21.75;100.00;94559.81;5032927;28;20525;-79
2023/06/14 13:44:58;;;;;;;14.00;9.00;;;;;;;21.63;100.00;94567.59;5051765;28;20436;-79
2023/06/14 13:47:25;;;;;;;10.43;8.90;;;;;;;21.49;100.00;94560.63;5051922;28;20489;-79
2023/06/14 13:49:52;;;;;;;10.63;8.33;;;;;;;21.29;100.00;94563.28;5032892;28;21025;-79
2023/06/14 13:52:19;;;;;;;10.90;9.53;;;;;;;21.13;100.00;94555.63;5049252;28;20541;-79
2023/06/14 13:54:47;;;;;;;10.83;9.17;;;;;;;21.10;100.00;94556.00;5051909;28;20477;-79
2023/06/14 13:57:14;;;;;;;9.93;8.90;;;;;;;21.08;100.00;94552.72;5051803;28;20449;-79
2023/06/14 13:59:41;;;;;;;9.40;8.40;;;;;;;21.01;100.00;94563.41;5051846;28;20449;-79
2023/06/14 14:02:08;;;;;;;8.97;7.60;;;;;;;20.90;100.00;94566.66;5051548;28;20783;-80
2023/06/14 14:04:36;;;;;;;10.57;8.90;;;;;;;20.88;100.00;94574.06;5051438;28;20459;-79
2023/06/14 14:07:03;;;;;;;10.83;8.53;;;;;;;20.88;100.00;94574.06;5051843;28;20527;-79
2023/06/14 14:09:30;;;;;;;8.97;8.07;;;;;;;20.79;100.00;94577.91;5051645;28;20943;-79
2023/06/14 14:11:59;;;;;;;10.13;9.10;;;;;;;20.86;100.00;94570.75;5052038;28;20513;-79
2023/06/14 14:14:25;;;;;;;9.50;7.83;;;;;;;20.82;100.00;94575.69;5016140;28;20919;-79
2023/06/14 14:16:53;;;;;;;11.37;8.77;;;;;;;20.76;100.00;94581.78;5051369;28;20956;-79
2023/06/14 14:19:20;;;;;;;8.03;7.23;;;;;;;20.71;100.00;94589.56;5032831;28;20453;-79
2023/06/14 14:21:47;;;;;;;8.60;7.70;;;;;;;20.72;100.00;94585.88;5051626;28;20454;-79
2023/06/14 14:24:14;;;;;;;13.77;8.30;;;;;;;20.78;100.00;94593.06;5051249;28;21021;-79
2023/06/14 14:26:40;;;;;;;10.20;8.33;;;;;;;20.76;100.00;94597.78;5051400;28;20483;-79
2023/06/14 14:29:11;;;;;;;9.00;8.10;;;;;;;20.73;100.00;94604.34;5051229;28;20446;-79
2023/06/14 14:31:38;;;;;;;8.00;7.20;;;;;;;20.67;100.00;94586.47;5051219;28;20451;-79
2023/06/14 14:34:05;;;;;;;9.70;7.90;;;;;;;20.75;100.00;94596.16;5051154;28;20894;-79
2023/06/14 14:36:33;;;;;;;11.37;8.97;;;;;;;20.76;100.00;94599.63;5051194;28;20514;-79
2023/06/14 14:38:59;;;;;;;10.23;9.23;;;;;;;20.82;100.00;94601.53;5051263;28;20455;-79
2023/06/14 14:41:26;;;;;;;9.90;8.90;;;;;;;20.83;100.00;94597.84;5051165;28;20855;-79
2023/06/14 14:43:53;;;;;;;9.00;8.20;;;;;;;20.89;100.00;94608.53;5051162;28;20439;-79
2023/06/14 14:46:21;;;;;;;10.97;8.80;;;;;;;20.84;100.00;94610.97;5052238;28;20934;-79
2023/06/14 14:48:48;;;;;;;15.53;9.40;;;;;;;20.62;100.00;94617.44;5054638;28;20443;-79
2023/06/14 14:51:15;;;;;;;10.43;9.37;;;;;;;20.65;100.00;94622.38;5054822;28;20455;-79
2023/06/14 14:53:41;;;;;;;9.80;8.80;;;;;;;20.73;100.00;94614.19;5054682;28;20549;-79
2023/06/14 14:56:08;;;;;;;12.80;9.77;;;;;;;20.83;100.00;94616.50;5054760;28;20522;-79
2023/06/14 14:58:35;;;;;;;20.00;10.70;;;;;;;20.91;100.00;94619.81;5054732;28;20942;-79
2023/06/14 15:01:02;;;;;;;17.10;10.33;;;;;;;20.83;100.00;94620.00;5054629;28;20941;-79
2023/06/14 15:03:30;;;;;;;13.67;11.77;;;;;;;20.84;100.00;94610.16;5054579;28;21179;-80
2023/06/14 15:05:56;;;;;;;15.27;12.53;;;;;;;20.63;100.00;94624.41;5035653;28;20436;-79
2023/06/14 15:08:23;;;;;;;20.17;12.60;;;;;;;20.53;100.00;94616.78;5054673;28;20508;-79
2023/06/14 15:10:50;;;;;;;20.00;14.87;;;;;;;20.65;100.00;94612.53;5035662;28;20444;-79
2023/06/14 15:13:18;;;;;;;21.13;13.90;;;;;;;20.55;100.00;94603.25;5019154;28;20491;-79
2023/06/14 15:15:45;;;;;;;22.27;13.00;;;;;;;20.52;100.00;94607.13;5054170;28;20538;-79
2023/06/14 15:18:11;;;;;;;13.77;11.10;;;;;;;20.48;100.00;94605.06;5054249;28;20824;-79
2023/06/14 15:20:40;;;;;;;15.10;11.80;;;;;;;20.56;100.00;94608.41;5054096;28;20446;-79
2023/06/14 15:23:07;;;;;;;12.73;10.83;;;;;;;20.70;100.00;94610.09;5054418;28;20999;-79
2023/06/14 15:25:34;;;;;;;12.07;10.80;;;;;;;20.86;100.00;94610.78;5054123;28;20452;-79